Time;durP1;ratioP1;P1;durP2;ratioP2;P2;SDS_P1;SDS_P2;PMS_P1;PMS_P2;Temp;Humidity;BMP_temperature;BMP_pressure;BME280_temperature;BME280_humidity;BME280_pressure;Samples;Min_cycle;Max_cycle;Signal;HPM_P1;HPM_P2
2024/03/23 00:01:46;;;;;;;8.23;6.13;;;;;;;;;;6223864;23;20027;-95
2024/03/23 00:04:13;;;;;;;8.05;5.88;;;;;;;;;;6242535;23;20095;-95
2024/03/23 00:06:40;;;;;;;6.53;5.40;;;;;;;;;;6223439;23;20020;-96
2024/03/23 00:09:07;;;;;;;11.55;5.25;;;;;;;;;;6246785;23;20016;-94
2024/03/23 00:11:37;;;;;;;10.13;5.50;;;;;;;;;;6246480;23;20031;-95
2024/03/23 00:14:07;;;;;;;6.03;4.78;;;;;;;;;;6221076;23;20345;-95
2024/03/23 00:16:34;;;;;;;8.50;4.90;;;;;;;;;;6221019;23;20024;-94
2024/03/23 00:19:02;;;;;;;5.55;4.97;;;;;;;;;;6221800;23;20016;-95
2024/03/23 00:21:32;;;;;;;6.90;5.43;;;;;;;;;;6221160;23;20024;-95
2024/03/23 00:23:58;;;;;;;6.47;5.28;;;;;;;;;;6220697;23;20082;-95
2024/03/23 00:26:25;;;;;;;10.35;5.00;;;;;;;;;;6246533;23;20027;-95
2024/03/23 00:28:52;;;;;;;8.18;5.72;;;;;;;;;;6246292;23;20020;-95
2024/03/23 00:31:19;;;;;;;10.65;4.97;;;;;;;;;;6246396;23;20354;-95
2024/03/23 00:33:46;;;;;;;6.15;5.38;;;;;;;;;;6221818;23;20349;-96
2024/03/23 00:36:13;;;;;;;6.85;5.03;;;;;;;;;;6221593;23;20023;-96
2024/03/23 00:38:39;;;;;;;8.93;5.20;;;;;;;;;;6221151;23;20020;-96
2024/03/23 00:41:06;;;;;;;7.97;5.00;;;;;;;;;;6220848;23;20020;-95
2024/03/23 00:43:33;;;;;;;8.27;4.22;;;;;;;;;;6221348;23;20446;-93
2024/03/23 00:46:00;;;;;;;7.75;5.20;;;;;;;;;;6221145;23;20042;-95
2024/03/23 00:48:26;;;;;;;5.93;4.90;;;;;;;;;;6245924;23;20024;-96
2024/03/23 00:50:53;;;;;;;6.68;4.70;;;;;;;;;;6246637;23;20027;-96
2024/03/23 00:53:20;;;;;;;5.85;4.68;;;;;;;;;;6220600;23;20046;-96
2024/03/23 00:55:46;;;;;;;6.35;5.22;;;;;;;;;;6245842;23;20020;-95
2024/03/23 00:58:12;;;;;;;6.65;4.75;;;;;;;;;;6220893;23;20353;-96
2024/03/23 01:00:38;;;;;;;6.20;4.88;;;;;;;;;;6220517;23;20024;-96
2024/03/23 01:03:05;;;;;;;8.27;5.30;;;;;;;;;;6220548;23;20024;-95
2024/03/23 01:05:31;;;;;;;11.20;6.07;;;;;;;;;;6221055;23;20016;-95
2024/03/23 01:07:57;;;;;;;6.82;5.38;;;;;;;;;;6221320;23;20024;-96
2024/03/23 01:10:23;;;;;;;7.38;5.82;;;;;;;;;;6246100;23;20047;-96
2024/03/23 01:12:49;;;;;;;6.15;5.35;;;;;;;;;;6246478;23;20021;-95
2024/03/23 01:15:16;;;;;;;7.60;5.43;;;;;;;;;;6246792;23;20318;-95
2024/03/23 01:17:42;;;;;;;10.80;5.57;;;;;;;;;;6228407;23;20004;-96
2024/03/23 01:20:08;;;;;;;7.45;6.22;;;;;;;;;;6235196;23;20024;-96
2024/03/23 01:22:34;;;;;;;8.70;6.57;;;;;;;;;;6247562;23;20024;-93
2024/03/23 01:25:01;;;;;;;7.40;6.13;;;;;;;;;;6245988;23;20026;-95
2024/03/23 01:27:27;;;;;;;7.18;6.47;;;;;;;;;;6221268;23;20028;-96
2024/03/23 01:29:54;;;;;;;11.82;6.70;;;;;;;;;;6246017;23;20020;-93
2024/03/23 01:32:20;;;;;;;7.50;6.35;;;;;;;;;;6220997;23;20082;-96
2024/03/23 01:34:46;;;;;;;7.40;6.60;;;;;;;;;;6220700;23;20024;-96
2024/03/23 01:37:13;;;;;;;8.77;6.13;;;;;;;;;;6245839;23;20020;-95
2024/03/23 01:39:39;;;;;;;8.75;6.63;;;;;;;;;;6220424;23;20024;-96
2024/03/23 01:42:05;;;;;;;6.30;5.68;;;;;;;;;;6245926;23;20032;-96
2024/03/23 01:44:32;;;;;;;7.65;6.07;;;;;;;;;;6248165;23;20038;-95
2024/03/23 01:46:58;;;;;;;6.47;5.82;;;;;;;;;;6222906;23;20352;-96
2024/03/23 01:49:25;;;;;;;10.38;6.97;;;;;;;;;;6248178;23;20016;-94
2024/03/23 01:51:51;;;;;;;10.30;6.75;;;;;;;;;;6223133;23;20380;-95
2024/03/23 01:54:17;;;;;;;9.65;6.85;;;;;;;;;;6223098;23;20020;-96
2024/03/23 01:56:43;;;;;;;8.57;7.20;;;;;;;;;;6222954;23;20330;-96
2024/03/23 01:59:10;;;;;;;13.10;6.60;;;;;;;;;;6223019;23;20475;-96
2024/03/23 02:01:36;;;;;;;10.73;7.15;;;;;;;;;;6222781;23;20020;-96
2024/03/23 02:04:02;;;;;;;10.75;7.15;;;;;;;;;;6222661;23;20074;-96
2024/03/23 02:06:29;;;;;;;11.55;7.30;;;;;;;;;;6248107;23;20023;-96
2024/03/23 02:08:56;;;;;;;9.02;7.00;;;;;;;;;;6222831;23;20062;-95
2024/03/23 02:11:22;;;;;;;10.05;7.43;;;;;;;;;;6248281;23;20457;-93
2024/03/23 02:13:48;;;;;;;11.55;7.45;;;;;;;;;;6222368;23;20035;-96
2024/03/23 02:16:15;;;;;;;13.07;7.55;;;;;;;;;;6222338;23;20070;-96
2024/03/23 02:18:41;;;;;;;9.13;7.10;;;;;;;;;;6222745;23;20020;-95
2024/03/23 02:21:07;;;;;;;11.90;7.50;;;;;;;;;;6221767;23;20020;-95
2024/03/23 02:23:33;;;;;;;13.13;6.43;;;;;;;;;;6247446;23;20020;-95
2024/03/23 02:26:00;;;;;;;8.93;6.80;;;;;;;;;;6222425;23;20020;-96
2024/03/23 02:28:26;;;;;;;8.32;7.00;;;;;;;;;;6223981;23;20024;-95
2024/03/23 02:30:52;;;;;;;13.75;6.88;;;;;;;;;;6253358;23;20453;-96
2024/03/23 02:33:19;;;;;;;11.93;7.85;;;;;;;;;;6240212;22;20038;-95
2024/03/23 02:35:46;;;;;;;8.75;6.80;;;;;;;;;;6262294;22;20016;-92
2024/03/23 02:38:13;;;;;;;12.63;6.97;;;;;;;;;;6222054;23;20024;-92
2024/03/23 02:40:39;;;;;;;13.13;7.22;;;;;;;;;;6221817;23;20038;-93
2024/03/23 02:43:05;;;;;;;11.40;7.03;;;;;;;;;;6247723;23;20020;-95
2024/03/23 02:45:31;;;;;;;12.40;7.75;;;;;;;;;;6222400;23;20016;-95
2024/03/23 02:47:58;;;;;;;12.65;7.80;;;;;;;;;;6221579;23;20031;-95
2024/03/23 02:50:24;;;;;;;11.30;7.38;;;;;;;;;;6222133;23;20020;-95
2024/03/23 02:52:50;;;;;;;12.40;8.48;;;;;;;;;;6247132;23;20461;-95
2024/03/23 02:55:16;;;;;;;14.90;8.98;;;;;;;;;;6246973;23;20020;-95
2024/03/23 02:57:43;;;;;;;12.60;8.48;;;;;;;;;;6222131;23;20025;-95
2024/03/23 03:00:10;;;;;;;10.50;8.35;;;;;;;;;;6222058;23;20071;-95
2024/03/23 03:02:37;;;;;;;11.63;7.65;;;;;;;;;;6221802;23;20026;-95
2024/03/23 03:05:04;;;;;;;10.43;7.85;;;;;;;;;;6221848;23;20028;-95
2024/03/23 03:07:32;;;;;;;12.95;8.05;;;;;;;;;;6222216;23;20024;-95
2024/03/23 03:09:58;;;;;;;9.27;7.75;;;;;;;;;;6246924;23;20070;-92
2024/03/23 03:12:24;;;;;;;10.77;6.95;;;;;;;;;;6221809;23;20020;-95
2024/03/23 03:14:50;;;;;;;8.30;6.85;;;;;;;;;;6222498;23;20479;-95
2024/03/23 03:17:16;;;;;;;10.82;7.60;;;;;;;;;;6221531;23;20448;-95
2024/03/23 03:19:43;;;;;;;11.52;7.80;;;;;;;;;;6221567;23;20021;-95
2024/03/23 03:22:09;;;;;;;12.82;7.90;;;;;;;;;;6221453;23;20024;-95
2024/03/23 03:24:35;;;;;;;12.15;7.88;;;;;;;;;;6247427;23;20017;-95
2024/03/23 03:27:03;;;;;;;11.45;8.60;;;;;;;;;;6246588;23;20028;-95
2024/03/23 03:29:35;;;;;;;11.60;9.93;;;;;;;;;;6221479;23;20016;-95
2024/03/23 03:32:02;;;;;;;18.58;10.63;;;;;;;;;;6247668;23;20066;-95
2024/03/23 03:34:29;;;;;;;19.13;10.60;;;;;;;;;;6221825;23;20022;-95
2024/03/23 03:36:55;;;;;;;12.57;9.68;;;;;;;;;;6247326;23;20069;-95
2024/03/23 03:39:22;;;;;;;15.75;10.80;;;;;;;;;;6220402;23;20020;-95
2024/03/23 03:41:49;;;;;;;18.50;11.32;;;;;;;;;;6246958;23;20031;-92
2024/03/23 03:44:15;;;;;;;14.70;10.52;;;;;;;;;;6220761;23;20016;-92
2024/03/23 03:46:41;;;;;;;17.45;10.80;;;;;;;;;;6222122;23;20027;-95
2024/03/23 03:49:08;;;;;;;19.67;11.73;;;;;;;;;;6266191;22;20016;-95
2024/03/23 03:51:34;;;;;;;18.88;11.68;;;;;;;;;;6251312;23;20027;-95
2024/03/23 03:54:00;;;;;;;18.55;12.40;;;;;;;;;;6220939;23;20021;-95
2024/03/23 03:56:27;;;;;;;20.40;11.70;;;;;;;;;;6221384;23;20345;-95
2024/03/23 03:58:54;;;;;;;17.45;12.23;;;;;;;;;;6246662;23;20086;-93
2024/03/23 04:01:20;;;;;;;19.63;11.50;;;;;;;;;;6221097;23;20384;-92
2024/03/23 04:03:47;;;;;;;17.95;12.45;;;;;;;;;;6220474;23;20016;-92
2024/03/23 04:06:19;;;;;;;16.88;11.18;;;;;;;;;;6221194;23;20075;-95
2024/03/23 04:08:45;;;;;;;13.57;10.60;;;;;;;;;;6221461;23;20020;-96
2024/03/23 04:11:11;;;;;;;21.10;12.45;;;;;;;;;;6221481;23;20061;-92
2024/03/23 04:13:37;;;;;;;19.00;12.20;;;;;;;;;;6221416;23;20024;-95
2024/03/23 04:16:04;;;;;;;17.83;12.02;;;;;;;;;;6221252;23;20022;-95
2024/03/23 04:18:30;;;;;;;16.60;11.32;;;;;;;;;;6221013;23;20016;-95
2024/03/23 04:20:56;;;;;;;16.88;11.57;;;;;;;;;;6223862;23;20471;-95
2024/03/23 04:23:22;;;;;;;15.35;11.57;;;;;;;;;;6221009;23;20024;-95
2024/03/23 04:25:49;;;;;;;13.07;10.93;;;;;;;;;;6245932;23;20027;-94
2024/03/23 04:28:15;;;;;;;18.40;12.50;;;;;;;;;;6220724;23;20024;-95
2024/03/23 04:30:41;;;;;;;19.88;12.38;;;;;;;;;;6220769;23;20023;-95
2024/03/23 04:33:08;;;;;;;18.25;11.70;;;;;;;;;;6220741;23;20020;-95
2024/03/23 04:35:34;;;;;;;18.75;11.98;;;;;;;;;;6221042;23;20026;-94
2024/03/23 04:38:00;;;;;;;15.93;12.00;;;;;;;;;;6220723;23;20020;-95
2024/03/23 04:40:27;;;;;;;17.38;11.85;;;;;;;;;;6220821;23;20031;-93
2024/03/23 04:42:53;;;;;;;19.90;12.95;;;;;;;;;;6246599;23;20024;-94
2024/03/23 04:45:19;;;;;;;15.60;10.73;;;;;;;;;;6245951;23;20016;-94
2024/03/23 04:47:46;;;;;;;14.88;10.68;;;;;;;;;;6245764;23;20020;-94
2024/03/23 04:50:12;;;;;;;16.90;11.95;;;;;;;;;;6246045;23;20083;-95
2024/03/23 04:52:38;;;;;;;12.98;10.40;;;;;;;;;;6246442;23;20518;-94
2024/03/23 04:55:05;;;;;;;16.63;11.23;;;;;;;;;;6249298;23;20016;-94
2024/03/23 04:57:31;;;;;;;15.57;10.70;;;;;;;;;;6220655;23;20027;-94
2024/03/23 04:59:58;;;;;;;17.00;11.48;;;;;;;;;;6246691;23;20020;-94
2024/03/23 05:02:25;;;;;;;14.23;11.15;;;;;;;;;;6222697;23;20027;-94
2024/03/23 05:04:52;;;;;;;19.33;12.45;;;;;;;;;;6239643;23;20445;-93
2024/03/23 05:07:18;;;;;;;21.33;13.02;;;;;;;;;;6220817;23;20035;-89
2024/03/23 05:09:44;;;;;;;21.73;13.05;;;;;;;;;;6220108;23;20066;-88
2024/03/23 05:12:10;;;;;;;20.08;13.45;;;;;;;;;;6219985;23;20024;-87
2024/03/23 05:14:36;;;;;;;20.27;12.40;;;;;;;;;;6219822;23;20024;-85
2024/03/23 05:17:04;;;;;;;15.30;12.18;;;;;;;;;;6245285;23;20020;-85
2024/03/23 05:19:30;;;;;;;23.48;13.13;;;;;;;;;;6222145;23;20027;-85
2024/03/23 05:21:56;;;;;;;19.85;12.45;;;;;;;;;;6247218;23;20020;-86
2024/03/23 05:24:23;;;;;;;17.33;12.75;;;;;;;;;;6221931;23;20074;-88
2024/03/23 05:26:49;;;;;;;20.02;12.85;;;;;;;;;;6247230;23;20038;-88
2024/03/23 05:29:17;;;;;;;23.27;13.18;;;;;;;;;;6221951;23;20387;-88
2024/03/23 05:31:43;;;;;;;25.67;13.50;;;;;;;;;;6222327;23;20349;-88
2024/03/23 05:34:10;;;;;;;19.42;12.90;;;;;;;;;;6221513;23;20020;-86
2024/03/23 05:36:36;;;;;;;21.98;13.70;;;;;;;;;;6247100;23;20016;-86
2024/03/23 05:39:03;;;;;;;22.75;14.60;;;;;;;;;;6221584;23;20020;-85
2024/03/23 05:41:29;;;;;;;27.58;15.95;;;;;;;;;;6246965;23;20076;-85
2024/03/23 05:43:55;;;;;;;25.83;15.02;;;;;;;;;;6246872;23;20020;-88
2024/03/23 05:46:21;;;;;;;17.17;12.93;;;;;;;;;;6221695;23;20020;-88
2024/03/23 05:48:48;;;;;;;27.02;15.27;;;;;;;;;;6246904;23;20031;-88
2024/03/23 05:51:14;;;;;;;29.35;15.05;;;;;;;;;;6247062;23;20039;-88
2024/03/23 05:53:40;;;;;;;24.70;15.13;;;;;;;;;;6221729;23;20499;-88
2024/03/23 05:56:07;;;;;;;19.98;14.23;;;;;;;;;;6221690;23;20023;-85
2024/03/23 05:58:33;;;;;;;21.08;14.68;;;;;;;;;;6221928;23;20334;-88
2024/03/23 06:01:00;;;;;;;21.27;14.57;;;;;;;;;;6246771;23;20024;-86
2024/03/23 06:03:27;;;;;;;21.73;13.88;;;;;;;;;;6247052;23;20026;-85
2024/03/23 06:05:54;;;;;;;21.75;15.73;;;;;;;;;;6221740;23;20016;-85
2024/03/23 06:08:20;;;;;;;25.63;15.35;;;;;;;;;;6246978;23;20450;-87
2024/03/23 06:10:47;;;;;;;24.50;14.98;;;;;;;;;;6221781;23;20446;-86
2024/03/23 06:13:14;;;;;;;22.17;14.20;;;;;;;;;;6246869;23;20016;-88
2024/03/23 06:15:40;;;;;;;24.27;15.25;;;;;;;;;;6221830;23;20024;-88
2024/03/23 06:18:07;;;;;;;25.40;14.95;;;;;;;;;;6254021;23;20016;-88
2024/03/23 06:20:34;;;;;;;22.63;13.85;;;;;;;;;;6227780;23;20471;-88
2024/03/23 06:23:03;;;;;;;24.10;14.73;;;;;;;;;;6221487;23;20020;-87
2024/03/23 06:25:30;;;;;;;23.98;15.80;;;;;;;;;;6221876;23;20027;-88
2024/03/23 06:27:58;;;;;;;24.13;15.73;;;;;;;;;;6246260;23;20024;-87
2024/03/23 06:30:26;;;;;;;26.33;18.98;;;;;;;;;;6246871;23;20353;-87
2024/03/23 06:32:53;;;;;;;28.25;19.30;;;;;;;;;;6246724;23;20051;-88
2024/03/23 06:35:19;;;;;;;37.10;23.27;;;;;;;;;;6221316;23;20017;-88
2024/03/23 06:37:45;;;;;;;36.13;22.75;;;;;;;;;;6221350;23;20062;-88
2024/03/23 06:40:11;;;;;;;35.25;23.92;;;;;;;;;;6246814;23;20046;-88
2024/03/23 06:42:38;;;;;;;48.17;28.92;;;;;;;;;;6221667;23;20071;-88
2024/03/23 06:45:04;;;;;;;45.25;28.85;;;;;;;;;;6221025;23;20016;-87
2024/03/23 06:47:31;;;;;;;37.20;27.25;;;;;;;;;;6246775;23;20353;-88
2024/03/23 06:49:57;;;;;;;35.83;25.63;;;;;;;;;;6246643;23;20017;-88
2024/03/23 06:52:23;;;;;;;30.17;20.85;;;;;;;;;;6221351;23;20035;-87
2024/03/23 06:54:49;;;;;;;27.15;18.48;;;;;;;;;;6221397;23;20017;-88
2024/03/23 06:57:16;;;;;;;22.13;16.70;;;;;;;;;;6221968;23;20024;-87
2024/03/23 06:59:43;;;;;;;20.17;15.27;;;;;;;;;;6220700;23;20031;-87
2024/03/23 07:02:09;;;;;;;22.65;16.05;;;;;;;;;;6220444;23;20024;-88
2024/03/23 07:04:36;;;;;;;22.80;16.23;;;;;;;;;;6220611;23;20017;-88
2024/03/23 07:07:02;;;;;;;23.38;19.33;;;;;;;;;;6220800;23;20020;-88
2024/03/23 07:09:29;;;;;;;17.88;14.45;;;;;;;;;;6246217;23;20022;-88
2024/03/23 07:11:55;;;;;;;24.55;19.17;;;;;;;;;;6246512;23;20020;-88
2024/03/23 07:14:22;;;;;;;18.17;15.00;;;;;;;;;;6246166;23;20024;-88
2024/03/23 07:16:49;;;;;;;18.65;15.25;;;;;;;;;;6221080;23;20021;-88
2024/03/23 07:19:16;;;;;;;30.38;24.45;;;;;;;;;;6246450;23;20066;-88
2024/03/23 07:21:43;;;;;;;19.48;15.32;;;;;;;;;;6246032;23;20016;-88
2024/03/23 07:24:09;;;;;;;21.65;17.00;;;;;;;;;;6221060;23;20024;-88
2024/03/23 07:26:36;;;;;;;24.42;17.70;;;;;;;;;;6221209;23;20021;-88
2024/03/23 07:29:02;;;;;;;19.83;15.05;;;;;;;;;;6220921;23;20461;-88
2024/03/23 07:31:29;;;;;;;30.80;18.73;;;;;;;;;;6222206;23;20020;-88
2024/03/23 07:33:56;;;;;;;22.15;16.92;;;;;;;;;;6234684;23;20008;-88
2024/03/23 07:36:22;;;;;;;21.40;16.45;;;;;;;;;;6220873;23;20031;-88
2024/03/23 07:38:48;;;;;;;19.02;13.88;;;;;;;;;;6245925;23;20020;-88
2024/03/23 07:41:19;;;;;;;21.02;15.30;;;;;;;;;;6220241;23;20020;-88
2024/03/23 07:43:45;;;;;;;23.20;17.67;;;;;;;;;;6220793;23;20020;-87
2024/03/23 07:46:12;;;;;;;44.63;26.45;;;;;;;;;;6245718;23;20016;-87
2024/03/23 07:48:39;;;;;;;33.30;19.63;;;;;;;;;;6245831;23;20020;-87
2024/03/23 07:51:08;;;;;;;15.10;10.77;;;;;;;;;;6220704;23;20017;-87
2024/03/23 07:53:35;;;;;;;13.52;9.60;;;;;;;;;;6220116;23;20083;-86
2024/03/23 07:56:04;;;;;;;16.85;12.43;;;;;;;;;;6220122;23;20020;-88
2024/03/23 07:58:30;;;;;;;4.35;3.97;;;;;;;;;;6245836;23;20016;-85
2024/03/23 08:00:57;;;;;;;2.75;2.55;;;;;;;;;;6245407;23;20024;-87
2024/03/23 08:03:23;;;;;;;1.45;1.35;;;;;;;;;;6245056;23;20035;-87
2024/03/23 08:05:49;;;;;;;1.92;1.83;;;;;;;;;;6220609;23;20089;-86
2024/03/23 08:08:16;;;;;;;2.05;1.65;;;;;;;;;;6219760;23;20078;-85
2024/03/23 08:10:51;;;;;;;1.15;1.15;;;;;;;;;;6244972;23;20039;-88
2024/03/23 08:13:18;;;;;;;2.20;1.23;;;;;;;;;;6220315;23;20026;-87
2024/03/23 08:15:45;;;;;;;1.30;1.20;;;;;;;;;;6220045;23;20027;-88
2024/03/23 08:18:12;;;;;;;1.35;1.35;;;;;;;;;;6245937;23;20016;-87
2024/03/23 08:20:38;;;;;;;0.68;0.68;;;;;;;;;;6245473;23;20028;-87
2024/03/23 08:23:06;;;;;;;0.90;0.90;;;;;;;;;;6245757;23;20024;-86
2024/03/23 08:25:33;;;;;;;0.73;0.73;;;;;;;;;;6219994;23;20063;-88
2024/03/23 08:27:59;;;;;;;0.90;0.77;;;;;;;;;;6245673;23;20021;-87
2024/03/23 08:30:25;;;;;;;0.60;0.60;;;;;;;;;;6245647;23;20016;-86
2024/03/23 08:32:52;;;;;;;1.00;0.50;;;;;;;;;;6219943;23;20349;-88
2024/03/23 08:35:18;;;;;;;1.95;0.52;;;;;;;;;;6220038;23;20063;-86
2024/03/23 08:37:45;;;;;;;1.33;0.70;;;;;;;;;;6220323;23;20027;-88
2024/03/23 08:40:11;;;;;;;0.50;0.50;;;;;;;;;;6219339;23;20071;-89
2024/03/23 08:42:37;;;;;;;2.05;0.50;;;;;;;;;;6220374;23;20028;-89
2024/03/23 08:45:04;;;;;;;0.55;0.40;;;;;;;;;;6246040;23;20027;-89
2024/03/23 08:47:30;;;;;;;0.50;0.50;;;;;;;;;;6223925;23;20026;-89
2024/03/23 08:49:57;;;;;;;0.25;0.25;;;;;;;;;;6253312;23;20023;-90
2024/03/23 08:52:25;;;;;;;0.25;0.25;;;;;;;;;;6220312;23;20027;-89
2024/03/23 08:54:52;;;;;;;0.10;0.10;;;;;;;;;;6220409;23;20026;-88
2024/03/23 08:57:18;;;;;;;0.30;0.30;;;;;;;;;;6220443;23;20028;-89
2024/03/23 08:59:44;;;;;;;0.50;0.30;;;;;;;;;;6220657;23;20022;-89
2024/03/23 09:02:10;;;;;;;0.20;0.20;;;;;;;;;;6245640;23;20031;-89
2024/03/23 09:04:37;;;;;;;0.20;0.20;;;;;;;;;;6245447;23;20022;-89
2024/03/23 09:07:03;;;;;;;0.30;0.30;;;;;;;;;;6245630;23;20035;-89
2024/03/23 09:09:29;;;;;;;0.43;0.30;;;;;;;;;;6245828;23;20024;-89
2024/03/23 09:11:55;;;;;;;0.30;0.30;;;;;;;;;;6245761;23;20023;-89
2024/03/23 09:14:22;;;;;;;0.30;0.20;;;;;;;;;;6220479;23;20318;-89
2024/03/23 09:16:52;;;;;;;0.60;0.32;;;;;;;;;;6220719;23;20016;-89
2024/03/23 09:19:18;;;;;;;0.35;0.35;;;;;;;;;;6220463;23;20028;-90
2024/03/23 09:21:44;;;;;;;0.25;0.25;;;;;;;;;;6220883;23;20020;-90
2024/03/23 09:24:11;;;;;;;7.25;3.45;;;;;;;;;;6245838;23;20025;-89
2024/03/23 09:26:37;;;;;;;1.55;1.05;;;;;;;;;;6220777;23;20449;-89
2024/03/23 09:29:03;;;;;;;0.70;0.70;;;;;;;;;;6220364;23;20020;-89
2024/03/23 09:31:31;;;;;;;0.20;0.20;;;;;;;;;;6245619;23;20468;-89
2024/03/23 09:33:58;;;;;;;0.30;0.30;;;;;;;;;;6220277;23;20020;-90
2024/03/23 09:36:24;;;;;;;0.10;0.10;;;;;;;;;;6220816;23;20070;-90
2024/03/23 09:38:51;;;;;;;0.25;0.10;;;;;;;;;;6220467;23;20028;-89
2024/03/23 09:41:17;;;;;;;0.00;0.00;;;;;;;;;;6243996;23;20032;-89
2024/03/23 09:43:43;;;;;;;0.05;0.05;;;;;;;;;;6244480;23;20058;-90
2024/03/23 09:46:10;;;;;;;0.10;0.10;;;;;;;;;;6245330;23;20027;-90
2024/03/23 09:48:36;;;;;;;0.17;0.17;;;;;;;;;;6220374;23;20031;-89
2024/03/23 09:51:03;;;;;;;0.13;0.13;;;;;;;;;;6220580;23;20437;-90
2024/03/23 09:53:29;;;;;;;0.20;0.20;;;;;;;;;;6220462;23;20020;-90
2024/03/23 09:55:55;;;;;;;0.20;0.20;;;;;;;;;;6220295;23;20020;-90
2024/03/23 09:58:24;;;;;;;0.10;0.10;;;;;;;;;;6220305;23;20016;-91
2024/03/23 10:00:50;;;;;;;0.32;0.32;;;;;;;;;;6220977;23;20024;-91
2024/03/23 10:03:16;;;;;;;0.28;0.22;;;;;;;;;;6233072;23;20020;-90
2024/03/23 10:05:43;;;;;;;0.20;0.20;;;;;;;;;;6249875;23;20016;-91
2024/03/23 10:08:15;;;;;;;0.20;0.20;;;;;;;;;;6224942;23;20475;-91
2024/03/23 10:10:42;;;;;;;0.22;0.20;;;;;;;;;;6221953;23;20020;-90
2024/03/23 10:13:08;;;;;;;0.45;0.10;;;;;;;;;;6221285;23;20024;-90
2024/03/23 10:15:35;;;;;;;0.45;0.30;;;;;;;;;;6222017;23;20020;-91
2024/03/23 10:18:21;;;;;;;0.30;0.30;;;;;;;;;;6221966;23;20028;-91
2024/03/23 10:20:52;;;;;;;1.10;0.50;;;;;;;;;;6222230;23;20020;-91
2024/03/23 10:23:19;;;;;;;2.30;0.60;;;;;;;;;;6221955;23;20026;-91
2024/03/23 10:25:48;;;;;;;2.35;0.80;;;;;;;;;;6246123;23;20020;-90
2024/03/23 10:28:14;;;;;;;2.85;0.95;;;;;;;;;;6247564;23;20475;-90
2024/03/23 10:30:41;;;;;;;1.75;0.70;;;;;;;;;;6247216;23;20441;-91
2024/03/23 10:33:11;;;;;;;2.45;0.95;;;;;;;;;;6247227;23;20028;-91
2024/03/23 10:35:38;;;;;;;4.63;1.20;;;;;;;;;;6246839;23;20030;-90
2024/03/23 10:38:06;;;;;;;2.22;0.85;;;;;;;;;;6246996;23;20016;-91
2024/03/23 10:40:34;;;;;;;2.78;1.17;;;;;;;;;;6222200;23;20027;-90
2024/03/23 10:43:01;;;;;;;6.15;1.20;;;;;;;;;;6221929;23;20024;-89
2024/03/23 10:45:27;;;;;;;4.40;1.27;;;;;;;;;;6221691;23;20028;-91
2024/03/23 10:47:57;;;;;;;4.25;1.13;;;;;;;;;;6222141;23;20024;-91
2024/03/23 10:50:25;;;;;;;4.88;1.13;;;;;;;;;;6247444;23;20020;-90
2024/03/23 10:52:53;;;;;;;4.22;1.20;;;;;;;;;;6221825;23;20020;-86
2024/03/23 10:55:21;;;;;;;3.80;1.30;;;;;;;;;;6222142;23;20099;-88
2024/03/23 10:57:52;;;;;;;5.10;1.65;;;;;;;;;;6247053;23;20024;-88
2024/03/23 11:00:18;;;;;;;3.00;1.25;;;;;;;;;;6223594;23;20035;-91
2024/03/23 11:02:44;;;;;;;3.95;1.40;;;;;;;;;;6222733;23;20031;-92
2024/03/23 11:05:30;;;;;;;2.80;1.17;;;;;;;;;;6222858;23;20016;-91
2024/03/23 11:07:56;;;;;;;8.20;1.80;;;;;;;;;;6221938;23;20024;-90
2024/03/23 11:10:30;;;;;;;5.63;2.17;;;;;;;;;;6222693;23;20016;-91
2024/03/23 11:12:57;;;;;;;7.30;1.77;;;;;;;;;;6222874;23;20090;-91
2024/03/23 11:15:23;;;;;;;5.68;1.55;;;;;;;;;;6249083;23;20020;-91
2024/03/23 11:18:07;;;;;;;7.35;1.65;;;;;;;;;;6254592;23;20077;-91
2024/03/23 11:20:35;;;;;;;4.68;1.63;;;;;;;;;;6247634;23;20024;-91
2024/03/23 11:23:01;;;;;;;8.18;1.52;;;;;;;;;;6247020;23;20051;-91
2024/03/23 11:25:28;;;;;;;5.97;1.63;;;;;;;;;;6221431;23;20345;-91
2024/03/23 11:27:55;;;;;;;6.25;1.83;;;;;;;;;;6221469;23;20020;-90
2024/03/23 11:30:22;;;;;;;6.97;1.90;;;;;;;;;;6222458;23;20020;-93
2024/03/23 11:32:49;;;;;;;6.05;2.05;;;;;;;;;;6221581;23;20449;-92
2024/03/23 11:35:35;;;;;;;6.05;1.90;;;;;;;;;;6221785;23;20357;-93
2024/03/23 11:38:05;;;;;;;4.40;1.75;;;;;;;;;;6246404;23;20020;-92
2024/03/23 11:40:32;;;;;;;4.55;1.95;;;;;;;;;;6221437;23;20449;-91
2024/03/23 11:43:02;;;;;;;6.93;2.65;;;;;;;;;;6223152;23;20461;-94
2024/03/23 11:45:29;;;;;;;6.63;1.88;;;;;;;;;;6221156;23;20017;-93
2024/03/23 11:48:08;;;;;;;4.53;1.85;;;;;;;;;;6246504;23;20445;-93
2024/03/23 11:50:37;;;;;;;4.45;1.67;;;;;;;;;;6221697;23;20020;-92
2024/03/23 11:53:12;;;;;;;6.45;1.70;;;;;;;;;;6221076;23;20039;-93
2024/03/23 11:55:48;;;;;;;6.63;2.25;;;;;;;;;;6246806;23;20031;-92
2024/03/23 11:58:15;;;;;;;4.10;1.58;;;;;;;;;;6221714;23;20020;-92
2024/03/23 12:00:41;;;;;;;2.25;1.60;;;;;;;;;;6220963;23;20074;-92
2024/03/23 12:03:09;;;;;;;7.20;2.00;;;;;;;;;;6246185;23;20028;-90
2024/03/23 12:05:38;;;;;;;3.60;1.58;;;;;;;;;;6221521;23;20017;-92
2024/03/23 12:08:17;;;;;;;7.72;2.08;;;;;;;;;;6221349;23;20024;-92
2024/03/23 12:10:54;;;;;;;6.35;2.08;;;;;;;;;;6222540;23;20016;-93
2024/03/23 12:13:21;;;;;;;5.13;2.38;;;;;;;;;;6221596;23;20027;-92
2024/03/23 12:15:48;;;;;;;3.90;2.42;;;;;;;;;;6246942;23;20475;-93
2024/03/23 12:18:14;;;;;;;7.95;2.72;;;;;;;;;;6221712;23;20050;-92
2024/03/23 12:20:41;;;;;;;6.90;2.25;;;;;;;;;;6222209;23;20027;-92
2024/03/23 12:23:07;;;;;;;7.65;2.58;;;;;;;;;;6246673;23;20028;-92
2024/03/23 12:25:35;;;;;;;7.50;2.30;;;;;;;;;;6221685;23;20020;-92
2024/03/23 12:28:01;;;;;;;3.97;2.03;;;;;;;;;;6221916;23;20024;-92
2024/03/23 12:30:27;;;;;;;3.35;1.55;;;;;;;;;;6222666;23;20020;-93
2024/03/23 12:32:53;;;;;;;2.60;1.45;;;;;;;;;;6234519;23;20016;-91
2024/03/23 12:35:20;;;;;;;1.52;0.95;;;;;;;;;;6248275;23;20020;-91
2024/03/23 12:37:46;;;;;;;3.65;1.23;;;;;;;;;;6245798;23;20020;-92
2024/03/23 12:40:13;;;;;;;3.42;1.27;;;;;;;;;;6246448;23;20027;-92
2024/03/23 12:42:39;;;;;;;1.38;0.93;;;;;;;;;;6220519;23;20024;-92
2024/03/23 12:45:05;;;;;;;1.95;0.88;;;;;;;;;;6220676;23;20023;-92
2024/03/23 12:47:32;;;;;;;2.90;1.00;;;;;;;;;;6245793;23;20030;-92
2024/03/23 12:49:58;;;;;;;2.97;1.17;;;;;;;;;;6221888;23;20032;-91
2024/03/23 12:52:28;;;;;;;1.27;0.77;;;;;;;;;;6221015;23;20025;-93
2024/03/23 12:54:56;;;;;;;1.90;1.02;;;;;;;;;;6246938;23;20392;-91
2024/03/23 12:57:23;;;;;;;4.60;1.00;;;;;;;;;;6222904;23;20027;-92
2024/03/23 12:59:51;;;;;;;3.45;0.95;;;;;;;;;;6223634;23;20027;-91
2024/03/23 13:02:18;;;;;;;2.17;0.90;;;;;;;;;;6223626;23;20016;-92
2024/03/23 13:04:45;;;;;;;2.30;1.13;;;;;;;;;;6220874;23;20027;-92
2024/03/23 13:07:11;;;;;;;1.75;1.17;;;;;;;;;;6221049;23;20020;-93
2024/03/23 13:09:37;;;;;;;2.33;1.25;;;;;;;;;;6220739;23;20341;-92
2024/03/23 13:12:03;;;;;;;4.43;1.50;;;;;;;;;;6220627;23;20024;-93
2024/03/23 13:14:30;;;;;;;3.20;1.30;;;;;;;;;;6221317;23;20016;-92
2024/03/23 13:16:56;;;;;;;3.47;1.10;;;;;;;;;;6246581;23;20322;-93
2024/03/23 13:19:26;;;;;;;3.08;1.40;;;;;;;;;;6221654;23;20062;-93
2024/03/23 13:21:56;;;;;;;4.32;1.48;;;;;;;;;;6220993;23;20020;-92
2024/03/23 13:24:23;;;;;;;3.90;1.27;;;;;;;;;;6221799;23;20453;-91
2024/03/23 13:26:50;;;;;;;4.28;1.15;;;;;;;;;;6221759;23;20028;-93
2024/03/23 13:29:16;;;;;;;3.88;1.23;;;;;;;;;;6245946;23;20016;-92
2024/03/23 13:31:43;;;;;;;3.38;1.08;;;;;;;;;;6222043;23;20043;-93
2024/03/23 13:34:09;;;;;;;2.25;0.85;;;;;;;;;;6246064;23;20016;-92
2024/03/23 13:36:35;;;;;;;2.58;0.88;;;;;;;;;;6220739;23;20024;-92
2024/03/23 13:39:06;;;;;;;5.55;1.00;;;;;;;;;;6222874;23;20023;-91
2024/03/23 13:41:32;;;;;;;1.80;0.73;;;;;;;;;;6222634;23;20020;-93
2024/03/23 13:43:58;;;;;;;3.40;0.82;;;;;;;;;;6250372;23;20034;-94
2024/03/23 13:46:25;;;;;;;2.92;1.10;;;;;;;;;;6229091;23;20023;-93
2024/03/23 13:48:51;;;;;;;2.22;1.08;;;;;;;;;;6241459;23;20030;-91
2024/03/23 13:51:24;;;;;;;4.53;1.00;;;;;;;;;;6225620;23;20065;-93
2024/03/23 13:53:50;;;;;;;2.85;1.13;;;;;;;;;;6250984;23;20021;-94
2024/03/23 13:56:16;;;;;;;4.65;1.00;;;;;;;;;;6248170;23;20066;-91
2024/03/23 13:58:46;;;;;;;4.53;1.55;;;;;;;;;;6248204;23;20089;-93
2024/03/23 14:01:15;;;;;;;1.83;1.00;;;;;;;;;;6222954;23;20020;-93
2024/03/23 14:03:41;;;;;;;5.43;1.20;;;;;;;;;;6222546;23;20020;-93
2024/03/23 14:06:08;;;;;;;4.15;1.48;;;;;;;;;;6222426;23;20047;-92
2024/03/23 14:08:36;;;;;;;2.10;1.08;;;;;;;;;;6222847;23;20031;-92
2024/03/23 14:11:06;;;;;;;3.20;1.40;;;;;;;;;;6224686;23;20027;-93
2024/03/23 14:13:32;;;;;;;2.88;1.42;;;;;;;;;;6223570;23;20020;-92
2024/03/23 14:15:59;;;;;;;2.28;1.02;;;;;;;;;;6223611;23;20353;-93
2024/03/23 14:18:28;;;;;;;3.63;1.40;;;;;;;;;;6250246;23;20063;-94
2024/03/23 14:21:00;;;;;;;2.70;1.50;;;;;;;;;;6223782;23;20028;-94
2024/03/23 14:23:34;;;;;;;6.43;1.50;;;;;;;;;;6223533;23;20449;-93
2024/03/23 14:26:00;;;;;;;4.28;1.77;;;;;;;;;;6226189;23;20016;-92
2024/03/23 14:28:27;;;;;;;2.92;1.27;;;;;;;;;;6222229;23;20024;-92
2024/03/23 14:30:56;;;;;;;4.50;1.52;;;;;;;;;;6222477;23;20473;-92
2024/03/23 14:33:24;;;;;;;5.15;2.28;;;;;;;;;;6247529;23;20020;-93